sensor_id;sensor_type;location;lat;lon;timestamp;temperature;humidity
5808;DHT22;2930;42.678;23.312;2023-04-24T00:02:05;12.20;76.00
5808;DHT22;2930;42.678;23.312;2023-04-24T00:04:32;12.20;76.10
5808;DHT22;2930;42.678;23.312;2023-04-24T00:06:57;12.30;76.90
5808;DHT22;2930;42.678;23.312;2023-04-24T00:09:26;12.10;78.30
5808;DHT22;2930;42.678;23.312;2023-04-24T00:11:52;11.90;77.90
5808;DHT22;2930;42.678;23.312;2023-04-24T00:14:18;11.90;78.30
5808;DHT22;2930;42.678;23.312;2023-04-24T00:16:43;11.90;78.30
5808;DHT22;2930;42.678;23.312;2023-04-24T00:19:09;11.90;78.10
5808;DHT22;2930;42.678;23.312;2023-04-24T00:21:37;11.90;77.40
5808;DHT22;2930;42.678;23.312;2023-04-24T00:24:03;11.90;77.60
5808;DHT22;2930;42.678;23.312;2023-04-24T00:26:29;11.90;78.00
5808;DHT22;2930;42.678;23.312;2023-04-24T00:28:54;11.90;78.10
5808;DHT22;2930;42.678;23.312;2023-04-24T00:31:20;11.90;78.40
5808;DHT22;2930;42.678;23.312;2023-04-24T00:33:46;11.90;78.50
5808;DHT22;2930;42.678;23.312;2023-04-24T00:36:11;11.80;77.80
5808;DHT22;2930;42.678;23.312;2023-04-24T00:38:37;11.70;77.40
5808;DHT22;2930;42.678;23.312;2023-04-24T00:41:03;11.80;77.30
5808;DHT22;2930;42.678;23.312;2023-04-24T00:43:28;11.80;77.10
5808;DHT22;2930;42.678;23.312;2023-04-24T00:45:54;11.80;76.60
5808;DHT22;2930;42.678;23.312;2023-04-24T00:48:20;11.90;76.40
5808;DHT22;2930;42.678;23.312;2023-04-24T00:50:46;11.90;76.50
5808;DHT22;2930;42.678;23.312;2023-04-24T00:53:12;11.90;76.70
5808;DHT22;2930;42.678;23.312;2023-04-24T00:55:37;11.90;76.60
5808;DHT22;2930;42.678;23.312;2023-04-24T00:58:04;12.00;76.20
5808;DHT22;2930;42.678;23.312;2023-04-24T01:00:30;12.00;75.50
5808;DHT22;2930;42.678;23.312;2023-04-24T01:02:58;12.00;74.70
5808;DHT22;2930;42.678;23.312;2023-04-24T01:05:24;12.00;74.30
5808;DHT22;2930;42.678;23.312;2023-04-24T01:07:51;12.00;73.90
5808;DHT22;2930;42.678;23.312;2023-04-24T01:10:17;12.10;73.80
5808;DHT22;2930;42.678;23.312;2023-04-24T01:12:43;12.10;74.10
5808;DHT22;2930;42.678;23.312;2023-04-24T01:15:09;12.10;74.60
5808;DHT22;2930;42.678;23.312;2023-04-24T01:17:35;12.10;75.50
5808;DHT22;2930;42.678;23.312;2023-04-24T01:20:01;12.10;77.00
5808;DHT22;2930;42.678;23.312;2023-04-24T01:22:29;12.10;78.30
5808;DHT22;2930;42.678;23.312;2023-04-24T01:24:55;12.10;79.20
5808;DHT22;2930;42.678;23.312;2023-04-24T01:27:21;12.00;79.40
5808;DHT22;2930;42.678;23.312;2023-04-24T01:29:47;12.00;79.70
5808;DHT22;2930;42.678;23.312;2023-04-24T01:32:14;12.00;79.20
5808;DHT22;2930;42.678;23.312;2023-04-24T01:34:40;12.00;78.70
5808;DHT22;2930;42.678;23.312;2023-04-24T01:37:06;11.90;78.40
5808;DHT22;2930;42.678;23.312;2023-04-24T01:39:32;11.80;78.30
5808;DHT22;2930;42.678;23.312;2023-04-24T01:41:59;11.70;79.30
5808;DHT22;2930;42.678;23.312;2023-04-24T01:44:26;11.70;79.90
5808;DHT22;2930;42.678;23.312;2023-04-24T01:46:52;11.60;79.30
5808;DHT22;2930;42.678;23.312;2023-04-24T01:49:19;11.50;80.00
5808;DHT22;2930;42.678;23.312;2023-04-24T01:51:45;11.50;79.80
5808;DHT22;2930;42.678;23.312;2023-04-24T01:54:11;11.30;79.20
5808;DHT22;2930;42.678;23.312;2023-04-24T01:56:42;11.30;79.20
5808;DHT22;2930;42.678;23.312;2023-04-24T01:59:12;11.20;78.80
5808;DHT22;2930;42.678;23.312;2023-04-24T02:01:38;11.20;78.50
5808;DHT22;2930;42.678;23.312;2023-04-24T02:04:05;11.10;78.40
5808;DHT22;2930;42.678;23.312;2023-04-24T02:06:31;11.00;78.70
5808;DHT22;2930;42.678;23.312;2023-04-24T02:08:58;11.00;78.60
5808;DHT22;2930;42.678;23.312;2023-04-24T02:11:25;10.90;78.80
5808;DHT22;2930;42.678;23.312;2023-04-24T02:13:51;10.90;78.80
5808;DHT22;2930;42.678;23.312;2023-04-24T02:16:17;10.90;79.00
5808;DHT22;2930;42.678;23.312;2023-04-24T02:18:43;10.80;79.10
5808;DHT22;2930;42.678;23.312;2023-04-24T02:21:09;10.80;79.40
5808;DHT22;2930;42.678;23.312;2023-04-24T02:23:35;10.80;79.30
5808;DHT22;2930;42.678;23.312;2023-04-24T02:26:01;10.70;79.40
5808;DHT22;2930;42.678;23.312;2023-04-24T02:28:26;10.70;79.80
5808;DHT22;2930;42.678;23.312;2023-04-24T02:30:52;10.70;79.80
5808;DHT22;2930;42.678;23.312;2023-04-24T02:33:18;10.60;80.10
5808;DHT22;2930;42.678;23.312;2023-04-24T02:35:43;10.60;80.10
5808;DHT22;2930;42.678;23.312;2023-04-24T02:38:09;10.60;80.40
5808;DHT22;2930;42.678;23.312;2023-04-24T02:40:35;10.60;80.20
5808;DHT22;2930;42.678;23.312;2023-04-24T02:43:00;10.60;80.20
5808;DHT22;2930;42.678;23.312;2023-04-24T02:45:26;10.60;80.40
5808;DHT22;2930;42.678;23.312;2023-04-24T02:47:52;10.50;80.30
5808;DHT22;2930;42.678;23.312;2023-04-24T02:50:17;10.50;80.10
5808;DHT22;2930;42.678;23.312;2023-04-24T02:52:43;10.50;80.00
5808;DHT22;2930;42.678;23.312;2023-04-24T02:55:09;10.50;80.00
5808;DHT22;2930;42.678;23.312;2023-04-24T02:57:35;10.50;80.10
5808;DHT22;2930;42.678;23.312;2023-04-24T03:00:00;10.50;80.20
5808;DHT22;2930;42.678;23.312;2023-04-24T03:02:26;10.50;80.30
5808;DHT22;2930;42.678;23.312;2023-04-24T03:04:52;10.50;80.50
5808;DHT22;2930;42.678;23.312;2023-04-24T03:07:18;10.50;80.70
5808;DHT22;2930;42.678;23.312;2023-04-24T03:09:46;10.40;80.70
5808;DHT22;2930;42.678;23.312;2023-04-24T03:12:12;10.40;80.70
5808;DHT22;2930;42.678;23.312;2023-04-24T03:14:38;10.40;80.70
5808;DHT22;2930;42.678;23.312;2023-04-24T03:17:04;10.20;80.90
5808;DHT22;2930;42.678;23.312;2023-04-24T03:19:30;10.20;81.30
5808;DHT22;2930;42.678;23.312;2023-04-24T03:21:55;10.20;81.00
5808;DHT22;2930;42.678;23.312;2023-04-24T03:24:21;10.20;80.90
5808;DHT22;2930;42.678;23.312;2023-04-24T03:26:47;10.20;81.20
5808;DHT22;2930;42.678;23.312;2023-04-24T03:29:13;10.10;81.80
5808;DHT22;2930;42.678;23.312;2023-04-24T03:31:39;10.10;82.10
5808;DHT22;2930;42.678;23.312;2023-04-24T03:34:04;10.20;82.70
5808;DHT22;2930;42.678;23.312;2023-04-24T03:36:30;10.20;82.50
5808;DHT22;2930;42.678;23.312;2023-04-24T03:38:56;10.20;82.60
5808;DHT22;2930;42.678;23.312;2023-04-24T03:41:22;10.10;83.40
5808;DHT22;2930;42.678;23.312;2023-04-24T03:43:48;10.00;84.30
5808;DHT22;2930;42.678;23.312;2023-04-24T03:46:13;9.90;84.90
5808;DHT22;2930;42.678;23.312;2023-04-24T03:48:40;10.00;84.30
5808;DHT22;2930;42.678;23.312;2023-04-24T03:51:06;10.00;84.70
5808;DHT22;2930;42.678;23.312;2023-04-24T03:53:31;9.90;85.10
5808;DHT22;2930;42.678;23.312;2023-04-24T03:55:57;9.90;85.20
5808;DHT22;2930;42.678;23.312;2023-04-24T03:58:23;9.90;85.40
5808;DHT22;2930;42.678;23.312;2023-04-24T04:00:49;9.80;85.60
5808;DHT22;2930;42.678;23.312;2023-04-24T04:03:15;9.80;85.80
5808;DHT22;2930;42.678;23.312;2023-04-24T04:05:40;9.90;85.40
5808;DHT22;2930;42.678;23.312;2023-04-24T04:08:06;10.00;84.60
5808;DHT22;2930;42.678;23.312;2023-04-24T04:10:32;10.00;85.00
5808;DHT22;2930;42.678;23.312;2023-04-24T04:12:57;10.00;84.50
5808;DHT22;2930;42.678;23.312;2023-04-24T04:15:23;10.20;84.20
5808;DHT22;2930;42.678;23.312;2023-04-24T04:17:49;10.30;83.50
5808;DHT22;2930;42.678;23.312;2023-04-24T04:20:14;10.40;82.90
5808;DHT22;2930;42.678;23.312;2023-04-24T04:22:40;10.50;82.50
5808;DHT22;2930;42.678;23.312;2023-04-24T04:25:06;10.60;82.20
5808;DHT22;2930;42.678;23.312;2023-04-24T04:27:32;10.60;82.10
5808;DHT22;2930;42.678;23.312;2023-04-24T04:30:01;10.70;82.30
5808;DHT22;2930;42.678;23.312;2023-04-24T04:32:33;10.70;81.90
5808;DHT22;2930;42.678;23.312;2023-04-24T04:35:00;10.80;82.40
5808;DHT22;2930;42.678;23.312;2023-04-24T04:37:32;10.90;83.00
5808;DHT22;2930;42.678;23.312;2023-04-24T04:39:59;10.90;82.40
5808;DHT22;2930;42.678;23.312;2023-04-24T04:42:27;11.00;82.30
5808;DHT22;2930;42.678;23.312;2023-04-24T04:44:53;11.00;82.20
5808;DHT22;2930;42.678;23.312;2023-04-24T04:47:21;11.10;81.70
5808;DHT22;2930;42.678;23.312;2023-04-24T04:49:50;11.20;80.30
5808;DHT22;2930;42.678;23.312;2023-04-24T04:52:19;11.20;78.30
5808;DHT22;2930;42.678;23.312;2023-04-24T04:54:45;11.20;77.90
5808;DHT22;2930;42.678;23.312;2023-04-24T04:57:11;11.20;78.00
5808;DHT22;2930;42.678;23.312;2023-04-24T04:59:37;11.20;77.90
5808;DHT22;2930;42.678;23.312;2023-04-24T05:02:03;11.20;77.40
5808;DHT22;2930;42.678;23.312;2023-04-24T05:04:29;11.20;77.60
5808;DHT22;2930;42.678;23.312;2023-04-24T05:06:55;11.20;77.80
5808;DHT22;2930;42.678;23.312;2023-04-24T05:09:21;11.20;77.90
5808;DHT22;2930;42.678;23.312;2023-04-24T05:11:47;11.20;77.90
5808;DHT22;2930;42.678;23.312;2023-04-24T05:14:13;11.30;77.80
5808;DHT22;2930;42.678;23.312;2023-04-24T05:16:39;11.40;77.70
5808;DHT22;2930;42.678;23.312;2023-04-24T05:19:05;11.40;77.10
5808;DHT22;2930;42.678;23.312;2023-04-24T05:21:31;11.50;77.20
5808;DHT22;2930;42.678;23.312;2023-04-24T05:23:57;11.50;76.60
5808;DHT22;2930;42.678;23.312;2023-04-24T05:26:22;11.50;76.20
5808;DHT22;2930;42.678;23.312;2023-04-24T05:28:49;11.50;75.50
5808;DHT22;2930;42.678;23.312;2023-04-24T05:31:15;11.50;75.60
5808;DHT22;2930;42.678;23.312;2023-04-24T05:33:41;11.50;76.00
5808;DHT22;2930;42.678;23.312;2023-04-24T05:36:07;11.50;75.60
5808;DHT22;2930;42.678;23.312;2023-04-24T05:38:32;11.50;75.80
5808;DHT22;2930;42.678;23.312;2023-04-24T05:40:58;11.50;76.40
5808;DHT22;2930;42.678;23.312;2023-04-24T05:43:24;11.50;76.50
5808;DHT22;2930;42.678;23.312;2023-04-24T05:45:50;11.60;77.10
5808;DHT22;2930;42.678;23.312;2023-04-24T05:48:16;11.60;76.70
5808;DHT22;2930;42.678;23.312;2023-04-24T05:50:42;11.70;77.10
5808;DHT22;2930;42.678;23.312;2023-04-24T05:53:07;11.70;76.70
5808;DHT22;2930;42.678;23.312;2023-04-24T05:55:34;11.70;76.40
5808;DHT22;2930;42.678;23.312;2023-04-24T05:58:01;11.80;76.10
5808;DHT22;2930;42.678;23.312;2023-04-24T06:00:26;11.80;76.30
5808;DHT22;2930;42.678;23.312;2023-04-24T06:02:52;11.90;76.30
5808;DHT22;2930;42.678;23.312;2023-04-24T06:05:18;11.90;76.30
5808;DHT22;2930;42.678;23.312;2023-04-24T06:07:44;11.90;76.40
5808;DHT22;2930;42.678;23.312;2023-04-24T06:10:10;11.90;76.40
5808;DHT22;2930;42.678;23.312;2023-04-24T06:12:36;11.90;76.20
5808;DHT22;2930;42.678;23.312;2023-04-24T06:15:03;12.00;75.90
5808;DHT22;2930;42.678;23.312;2023-04-24T06:17:29;12.10;75.50
5808;DHT22;2930;42.678;23.312;2023-04-24T06:19:54;12.20;75.50
5808;DHT22;2930;42.678;23.312;2023-04-24T06:22:20;12.30;75.20
5808;DHT22;2930;42.678;23.312;2023-04-24T06:24:46;12.40;75.20
5808;DHT22;2930;42.678;23.312;2023-04-24T06:27:13;12.50;75.30
5808;DHT22;2930;42.678;23.312;2023-04-24T06:29:39;12.60;75.20
5808;DHT22;2930;42.678;23.312;2023-04-24T06:32:05;12.70;75.00
5808;DHT22;2930;42.678;23.312;2023-04-24T06:34:31;12.80;74.60
5808;DHT22;2930;42.678;23.312;2023-04-24T06:36:58;12.90;74.60
5808;DHT22;2930;42.678;23.312;2023-04-24T06:39:23;13.00;74.30
5808;DHT22;2930;42.678;23.312;2023-04-24T06:41:50;13.10;74.10
5808;DHT22;2930;42.678;23.312;2023-04-24T06:44:15;13.30;73.40
5808;DHT22;2930;42.678;23.312;2023-04-24T06:46:42;13.40;73.50
5808;DHT22;2930;42.678;23.312;2023-04-24T06:49:07;13.60;73.00
5808;DHT22;2930;42.678;23.312;2023-04-24T06:51:33;13.70;72.40
5808;DHT22;2930;42.678;23.312;2023-04-24T06:53:59;13.70;72.70
5808;DHT22;2930;42.678;23.312;2023-04-24T06:56:26;13.80;72.60
5808;DHT22;2930;42.678;23.312;2023-04-24T06:58:52;13.90;72.40
5808;DHT22;2930;42.678;23.312;2023-04-24T07:01:18;14.00;72.60
5808;DHT22;2930;42.678;23.312;2023-04-24T07:03:44;14.00;72.40
5808;DHT22;2930;42.678;23.312;2023-04-24T07:06:10;14.00;72.70
5808;DHT22;2930;42.678;23.312;2023-04-24T07:08:36;14.10;72.00
5808;DHT22;2930;42.678;23.312;2023-04-24T07:11:02;14.10;71.40
5808;DHT22;2930;42.678;23.312;2023-04-24T07:13:28;14.10;71.70
5808;DHT22;2930;42.678;23.312;2023-04-24T07:15:54;14.10;71.80
5808;DHT22;2930;42.678;23.312;2023-04-24T07:18:23;14.10;71.60
5808;DHT22;2930;42.678;23.312;2023-04-24T07:20:49;14.20;71.80
5808;DHT22;2930;42.678;23.312;2023-04-24T07:23:18;14.20;72.00
5808;DHT22;2930;42.678;23.312;2023-04-24T07:25:44;14.30;71.90
5808;DHT22;2930;42.678;23.312;2023-04-24T07:28:10;14.40;71.60
5808;DHT22;2930;42.678;23.312;2023-04-24T07:30:36;14.40;71.40
5808;DHT22;2930;42.678;23.312;2023-04-24T07:33:01;14.50;71.30
5808;DHT22;2930;42.678;23.312;2023-04-24T07:35:27;14.60;71.20
5808;DHT22;2930;42.678;23.312;2023-04-24T07:37:53;14.60;71.50
5808;DHT22;2930;42.678;23.312;2023-04-24T07:40:19;14.60;71.40
5808;DHT22;2930;42.678;23.312;2023-04-24T07:42:45;14.70;70.80
5808;DHT22;2930;42.678;23.312;2023-04-24T07:45:14;14.80;71.00
5808;DHT22;2930;42.678;23.312;2023-04-24T07:47:41;14.80;71.00
5808;DHT22;2930;42.678;23.312;2023-04-24T07:50:09;14.90;70.30
5808;DHT22;2930;42.678;23.312;2023-04-24T07:52:35;14.90;70.30
5808;DHT22;2930;42.678;23.312;2023-04-24T07:55:01;15.00;70.30
5808;DHT22;2930;42.678;23.312;2023-04-24T07:57:27;15.10;70.50
5808;DHT22;2930;42.678;23.312;2023-04-24T07:59:53;15.10;70.10
5808;DHT22;2930;42.678;23.312;2023-04-24T08:02:19;15.20;69.90
5808;DHT22;2930;42.678;23.312;2023-04-24T08:04:45;15.20;69.40
5808;DHT22;2930;42.678;23.312;2023-04-24T08:07:11;15.30;69.70
5808;DHT22;2930;42.678;23.312;2023-04-24T08:09:38;15.30;69.90
5808;DHT22;2930;42.678;23.312;2023-04-24T08:12:04;15.50;69.80
5808;DHT22;2930;42.678;23.312;2023-04-24T08:14:30;15.60;69.60
5808;DHT22;2930;42.678;23.312;2023-04-24T08:16:55;15.70;69.20
5808;DHT22;2930;42.678;23.312;2023-04-24T08:19:22;15.90;69.20
5808;DHT22;2930;42.678;23.312;2023-04-24T08:21:47;16.00;69.70
5808;DHT22;2930;42.678;23.312;2023-04-24T08:24:13;16.20;69.20
5808;DHT22;2930;42.678;23.312;2023-04-24T08:26:39;16.30;68.60
5808;DHT22;2930;42.678;23.312;2023-04-24T08:29:05;16.50;68.30
5808;DHT22;2930;42.678;23.312;2023-04-24T08:31:32;16.70;68.30
5808;DHT22;2930;42.678;23.312;2023-04-24T08:33:58;16.90;68.30
5808;DHT22;2930;42.678;23.312;2023-04-24T08:36:25;17.10;68.00
5808;DHT22;2930;42.678;23.312;2023-04-24T08:38:51;17.30;66.90
5808;DHT22;2930;42.678;23.312;2023-04-24T08:41:18;17.50;66.70
5808;DHT22;2930;42.678;23.312;2023-04-24T08:43:45;17.50;65.30
5808;DHT22;2930;42.678;23.312;2023-04-24T08:46:13;17.60;65.90
5808;DHT22;2930;42.678;23.312;2023-04-24T08:48:39;17.80;66.00
5808;DHT22;2930;42.678;23.312;2023-04-24T08:51:08;17.90;66.00
5808;DHT22;2930;42.678;23.312;2023-04-24T08:53:35;18.10;65.50
5808;DHT22;2930;42.678;23.312;2023-04-24T08:56:01;18.20;65.20
5808;DHT22;2930;42.678;23.312;2023-04-24T08:58:28;18.40;65.10
5808;DHT22;2930;42.678;23.312;2023-04-24T09:00:57;18.60;64.10
5808;DHT22;2930;42.678;23.312;2023-04-24T09:03:24;18.80;63.30
5808;DHT22;2930;42.678;23.312;2023-04-24T09:05:50;19.00;63.40
5808;DHT22;2930;42.678;23.312;2023-04-24T09:08:19;19.20;64.30
5808;DHT22;2930;42.678;23.312;2023-04-24T09:10:46;19.50;62.50
5808;DHT22;2930;42.678;23.312;2023-04-24T09:13:12;19.70;62.10
5808;DHT22;2930;42.678;23.312;2023-04-24T09:15:39;19.70;61.30
5808;DHT22;2930;42.678;23.312;2023-04-24T09:18:05;19.90;62.30
5808;DHT22;2930;42.678;23.312;2023-04-24T09:20:31;20.30;61.70
5808;DHT22;2930;42.678;23.312;2023-04-24T09:22:57;20.60;60.90
5808;DHT22;2930;42.678;23.312;2023-04-24T09:25:34;20.90;60.10
5808;DHT22;2930;42.678;23.312;2023-04-24T09:28:02;21.20;59.00
5808;DHT22;2930;42.678;23.312;2023-04-24T09:30:29;21.70;59.00
5808;DHT22;2930;42.678;23.312;2023-04-24T09:33:14;22.40;57.80
5808;DHT22;2930;42.678;23.312;2023-04-24T09:35:51;22.90;56.70
5808;DHT22;2930;42.678;23.312;2023-04-24T09:38:17;23.60;56.10
5808;DHT22;2930;42.678;23.312;2023-04-24T09:40:43;24.10;54.80
5808;DHT22;2930;42.678;23.312;2023-04-24T09:43:12;24.70;53.30
5808;DHT22;2930;42.678;23.312;2023-04-24T09:45:38;25.20;51.60
5808;DHT22;2930;42.678;23.312;2023-04-24T09:48:05;25.20;51.00
5808;DHT22;2930;42.678;23.312;2023-04-24T09:50:34;25.10;50.80
5808;DHT22;2930;42.678;23.312;2023-04-24T09:53:04;25.20;51.00
5808;DHT22;2930;42.678;23.312;2023-04-24T09:55:31;25.60;52.30
5808;DHT22;2930;42.678;23.312;2023-04-24T09:58:00;25.90;50.90
5808;DHT22;2930;42.678;23.312;2023-04-24T10:00:32;25.90;49.40
5808;DHT22;2930;42.678;23.312;2023-04-24T10:03:02;25.70;50.00
5808;DHT22;2930;42.678;23.312;2023-04-24T10:05:35;26.00;50.20
5808;DHT22;2930;42.678;23.312;2023-04-24T10:08:05;26.80;50.00
5808;DHT22;2930;42.678;23.312;2023-04-24T10:10:33;27.90;48.30
5808;DHT22;2930;42.678;23.312;2023-04-24T10:13:00;28.80;47.50
5808;DHT22;2930;42.678;23.312;2023-04-24T10:15:26;29.30;47.10
5808;DHT22;2930;42.678;23.312;2023-04-24T10:17:52;29.50;46.10
5808;DHT22;2930;42.678;23.312;2023-04-24T10:20:23;29.70;46.10
5808;DHT22;2930;42.678;23.312;2023-04-24T10:22:51;30.20;45.70
5808;DHT22;2930;42.678;23.312;2023-04-24T10:25:19;31.00;45.40
5808;DHT22;2930;42.678;23.312;2023-04-24T10:27:46;31.70;44.90
5808;DHT22;2930;42.678;23.312;2023-04-24T10:30:13;32.30;43.10
5808;DHT22;2930;42.678;23.312;2023-04-24T10:32:39;32.90;42.30
5808;DHT22;2930;42.678;23.312;2023-04-24T10:35:07;33.50;42.00
5808;DHT22;2930;42.678;23.312;2023-04-24T10:37:45;33.90;41.60
5808;DHT22;2930;42.678;23.312;2023-04-24T10:40:12;34.20;41.30
5808;DHT22;2930;42.678;23.312;2023-04-24T10:42:41;34.10;40.60
5808;DHT22;2930;42.678;23.312;2023-04-24T10:45:17;33.70;41.50
5808;DHT22;2930;42.678;23.312;2023-04-24T10:48:06;32.70;43.00
5808;DHT22;2930;42.678;23.312;2023-04-24T10:50:53;31.90;43.10
5808;DHT22;2930;42.678;23.312;2023-04-24T10:53:20;31.40;43.70
5808;DHT22;2930;42.678;23.312;2023-04-24T10:58:26;31.00;45.60
5808;DHT22;2930;42.678;23.312;2023-04-24T11:01:00;30.60;43.90
5808;DHT22;2930;42.678;23.312;2023-04-24T11:03:31;29.90;44.80
5808;DHT22;2930;42.678;23.312;2023-04-24T11:06:05;29.40;45.50
5808;DHT22;2930;42.678;23.312;2023-04-24T11:08:46;28.70;45.80
5808;DHT22;2930;42.678;23.312;2023-04-24T11:11:16;27.10;46.90
5808;DHT22;2930;42.678;23.312;2023-04-24T11:18:59;24.90;51.40
5808;DHT22;2930;42.678;23.312;2023-04-24T11:21:25;24.60;51.10
5808;DHT22;2930;42.678;23.312;2023-04-24T11:23:57;23.70;51.70
5808;DHT22;2930;42.678;23.312;2023-04-24T11:26:22;22.30;54.30
5808;DHT22;2930;42.678;23.312;2023-04-24T11:29:09;20.50;60.30
5808;DHT22;2930;42.678;23.312;2023-04-24T11:31:36;19.60;64.30
5808;DHT22;2930;42.678;23.312;2023-04-24T11:34:07;19.20;64.60
5808;DHT22;2930;42.678;23.312;2023-04-24T11:36:34;19.60;64.20
5808;DHT22;2930;42.678;23.312;2023-04-24T11:39:00;20.00;62.50
5808;DHT22;2930;42.678;23.312;2023-04-24T11:41:27;19.90;63.10
5808;DHT22;2930;42.678;23.312;2023-04-24T11:43:54;19.50;63.50
5808;DHT22;2930;42.678;23.312;2023-04-24T11:46:21;19.50;63.30
5808;DHT22;2930;42.678;23.312;2023-04-24T11:48:47;19.20;63.40
5808;DHT22;2930;42.678;23.312;2023-04-24T11:51:13;19.20;64.00
5808;DHT22;2930;42.678;23.312;2023-04-24T11:53:39;19.20;63.70
5808;DHT22;2930;42.678;23.312;2023-04-24T11:56:09;19.70;63.10
5808;DHT22;2930;42.678;23.312;2023-04-24T11:58:38;20.20;62.10
5808;DHT22;2930;42.678;23.312;2023-04-24T12:01:04;20.60;61.70
5808;DHT22;2930;42.678;23.312;2023-04-24T12:03:31;21.00;61.00
5808;DHT22;2930;42.678;23.312;2023-04-24T12:06:10;21.60;59.30
5808;DHT22;2930;42.678;23.312;2023-04-24T12:08:36;21.80;59.00
5808;DHT22;2930;42.678;23.312;2023-04-24T12:11:04;22.30;58.40
5808;DHT22;2930;42.678;23.312;2023-04-24T12:13:30;22.30;56.70
5808;DHT22;2930;42.678;23.312;2023-04-24T12:15:59;22.40;56.60
5808;DHT22;2930;42.678;23.312;2023-04-24T12:18:26;22.60;56.70
5808;DHT22;2930;42.678;23.312;2023-04-24T12:20:52;22.80;55.60
5808;DHT22;2930;42.678;23.312;2023-04-24T12:23:34;22.80;56.50
5808;DHT22;2930;42.678;23.312;2023-04-24T12:26:04;22.60;56.10
5808;DHT22;2930;42.678;23.312;2023-04-24T12:28:37;22.60;55.70
5808;DHT22;2930;42.678;23.312;2023-04-24T12:31:03;22.80;54.90
5808;DHT22;2930;42.678;23.312;2023-04-24T12:33:33;22.80;55.50
5808;DHT22;2930;42.678;23.312;2023-04-24T12:36:00;23.00;55.00
5808;DHT22;2930;42.678;23.312;2023-04-24T12:38:27;23.40;55.30
5808;DHT22;2930;42.678;23.312;2023-04-24T12:41:07;23.70;54.10
5808;DHT22;2930;42.678;23.312;2023-04-24T12:43:34;23.80;54.00
5808;DHT22;2930;42.678;23.312;2023-04-24T12:46:00;23.60;53.60
5808;DHT22;2930;42.678;23.312;2023-04-24T12:48:27;23.40;54.60
5808;DHT22;2930;42.678;23.312;2023-04-24T12:50:53;23.40;53.70
5808;DHT22;2930;42.678;23.312;2023-04-24T12:53:18;23.10;54.90
5808;DHT22;2930;42.678;23.312;2023-04-24T12:55:44;23.30;54.60
5808;DHT22;2930;42.678;23.312;2023-04-24T12:58:12;23.70;54.00
5808;DHT22;2930;42.678;23.312;2023-04-24T13:00:38;23.50;54.20
5808;DHT22;2930;42.678;23.312;2023-04-24T13:03:04;22.60;55.80
5808;DHT22;2930;42.678;23.312;2023-04-24T13:05:30;22.30;55.40
5808;DHT22;2930;42.678;23.312;2023-04-24T13:07:57;21.70;55.90
5808;DHT22;2930;42.678;23.312;2023-04-24T13:10:22;21.80;56.70
5808;DHT22;2930;42.678;23.312;2023-04-24T13:12:48;22.10;56.10
5808;DHT22;2930;42.678;23.312;2023-04-24T13:15:14;22.70;54.70
5808;DHT22;2930;42.678;23.312;2023-04-24T13:17:40;23.40;54.80
5808;DHT22;2930;42.678;23.312;2023-04-24T13:20:06;24.10;53.10
5808;DHT22;2930;42.678;23.312;2023-04-24T13:22:32;24.70;51.60
5808;DHT22;2930;42.678;23.312;2023-04-24T13:24:58;24.90;51.90
5808;DHT22;2930;42.678;23.312;2023-04-24T13:27:23;25.00;51.70
5808;DHT22;2930;42.678;23.312;2023-04-24T13:29:49;25.20;50.00
5808;DHT22;2930;42.678;23.312;2023-04-24T13:32:17;25.70;50.00
5808;DHT22;2930;42.678;23.312;2023-04-24T13:34:42;26.20;48.70
5808;DHT22;2930;42.678;23.312;2023-04-24T13:37:08;26.60;49.90
5808;DHT22;2930;42.678;23.312;2023-04-24T13:39:34;27.00;48.80
5808;DHT22;2930;42.678;23.312;2023-04-24T13:42:00;27.70;49.10
5808;DHT22;2930;42.678;23.312;2023-04-24T13:44:26;28.40;47.00
5808;DHT22;2930;42.678;23.312;2023-04-24T13:46:54;29.00;46.70
5808;DHT22;2930;42.678;23.312;2023-04-24T13:49:22;29.50;47.30
5808;DHT22;2930;42.678;23.312;2023-04-24T13:51:50;30.00;46.70
5808;DHT22;2930;42.678;23.312;2023-04-24T13:54:16;30.20;45.80
5808;DHT22;2930;42.678;23.312;2023-04-24T13:56:42;29.80;45.20
5808;DHT22;2930;42.678;23.312;2023-04-24T13:59:08;29.80;46.00
5808;DHT22;2930;42.678;23.312;2023-04-24T14:01:34;29.70;45.90
5808;DHT22;2930;42.678;23.312;2023-04-24T14:04:00;29.60;46.50
5808;DHT22;2930;42.678;23.312;2023-04-24T14:06:26;29.90;46.60
5808;DHT22;2930;42.678;23.312;2023-04-24T14:08:52;30.40;45.80
5808;DHT22;2930;42.678;23.312;2023-04-24T14:11:18;30.90;45.50
5808;DHT22;2930;42.678;23.312;2023-04-24T14:13:45;31.50;45.50
5808;DHT22;2930;42.678;23.312;2023-04-24T14:16:11;31.90;44.30
5808;DHT22;2930;42.678;23.312;2023-04-24T14:18:37;31.60;44.00
5808;DHT22;2930;42.678;23.312;2023-04-24T14:21:04;31.60;43.60
5808;DHT22;2930;42.678;23.312;2023-04-24T14:23:29;31.40;42.50
5808;DHT22;2930;42.678;23.312;2023-04-24T14:25:56;31.60;43.00
5808;DHT22;2930;42.678;23.312;2023-04-24T14:28:22;31.90;42.70
5808;DHT22;2930;42.678;23.312;2023-04-24T14:30:48;32.00;42.80
5808;DHT22;2930;42.678;23.312;2023-04-24T14:33:14;32.00;44.40
5808;DHT22;2930;42.678;23.312;2023-04-24T14:35:40;31.60;45.20
5808;DHT22;2930;42.678;23.312;2023-04-24T14:38:07;30.50;46.90
5808;DHT22;2930;42.678;23.312;2023-04-24T14:40:33;29.10;48.90
5808;DHT22;2930;42.678;23.312;2023-04-24T14:42:58;27.40;51.20
5808;DHT22;2930;42.678;23.312;2023-04-24T14:45:25;25.90;53.80
5808;DHT22;2930;42.678;23.312;2023-04-24T14:47:51;24.50;55.30
5808;DHT22;2930;42.678;23.312;2023-04-24T14:50:16;23.60;57.00
5808;DHT22;2930;42.678;23.312;2023-04-24T14:52:42;23.00;57.80
5808;DHT22;2930;42.678;23.312;2023-04-24T14:55:08;22.30;58.40
5808;DHT22;2930;42.678;23.312;2023-04-24T14:57:34;21.80;59.70
5808;DHT22;2930;42.678;23.312;2023-04-24T15:00:02;21.40;60.30
5808;DHT22;2930;42.678;23.312;2023-04-24T15:02:28;20.90;61.00
5808;DHT22;2930;42.678;23.312;2023-04-24T15:04:54;20.50;61.90
5808;DHT22;2930;42.678;23.312;2023-04-24T15:07:20;20.20;63.60
5808;DHT22;2930;42.678;23.312;2023-04-24T15:09:46;19.90;63.60
5808;DHT22;2930;42.678;23.312;2023-04-24T15:12:12;19.60;64.50
5808;DHT22;2930;42.678;23.312;2023-04-24T15:14:38;19.30;64.80
5808;DHT22;2930;42.678;23.312;2023-04-24T15:17:04;19.00;65.30
5808;DHT22;2930;42.678;23.312;2023-04-24T15:19:31;18.70;66.10
5808;DHT22;2930;42.678;23.312;2023-04-24T15:21:57;18.40;66.60
5808;DHT22;2930;42.678;23.312;2023-04-24T15:24:22;18.10;67.70
5808;DHT22;2930;42.678;23.312;2023-04-24T15:26:48;18.00;68.00
5808;DHT22;2930;42.678;23.312;2023-04-24T15:29:14;17.80;68.40
5808;DHT22;2930;42.678;23.312;2023-04-24T15:31:40;17.80;68.40
5808;DHT22;2930;42.678;23.312;2023-04-24T15:34:06;17.80;69.00
5808;DHT22;2930;42.678;23.312;2023-04-24T15:36:32;17.80;69.30
5808;DHT22;2930;42.678;23.312;2023-04-24T15:38:58;17.80;69.30
5808;DHT22;2930;42.678;23.312;2023-04-24T15:41:23;17.70;69.50
5808;DHT22;2930;42.678;23.312;2023-04-24T15:43:49;17.70;69.90
5808;DHT22;2930;42.678;23.312;2023-04-24T15:46:15;17.80;69.70
5808;DHT22;2930;42.678;23.312;2023-04-24T15:48:42;17.80;69.80
5808;DHT22;2930;42.678;23.312;2023-04-24T15:51:08;17.90;69.10
5808;DHT22;2930;42.678;23.312;2023-04-24T15:53:33;17.90;69.80